Weather at Aerospatiale Helicopter Corp Heliport

Public forecast

Using degrees Fahrenheit for public forecast. Weather courtesy of forecast.io.

Closest aviation weather report (METAR) to Aerospatiale Helicopter Corp Heliport

Closest report is Grand Prairie Municipal Airport, 1.3 nm (2.3 km) SW.

2024/07/13 00:50 (retrieved 44 minutes ago)

KGPM 130050Z 16013KT 10SM SKC 31/18 A3007

Closest aviation forecast (TAF) to Aerospatiale Helicopter Corp Heliport

Forecast is more than 12 hours old.

Closest forecast is Altus Air Force Base, 162.2 nm (300.3 km) NW.

2024/07/12 05:52 Ammendment (retrieved 20 hours ago)

TAF AMD KLTS 120545Z 1205/1307 18010KT 9999 FEW100 BKN250 QNH2989INS BECMG 1214/1215 21012G20KT 9999 FEW200 510082 QNH2993INS BECMG 1300/1301 17013KT 9999 FEW100 SCT250 510103 QNH2993INS TX40/1221Z TN25/1212Z LAST NO AMDS AFT 1206 NEXT 1509